Weather Data

Pearl Creek Farm: 8878 N Farm Road 75, Walnut Grove MO 65770

<== Previous Day (Tuesday 18 Apr 2017) | Next Day (Thursday 20 Apr 2017) ==>

Summary Precipitation Data For Wednesday 19 April 2017

ElementValueUnits
Precipitation0"
Notes(none)
SourcePearl Creek Farm

Summary Temperature Data For Wednesday 19 April 2017

ElementValueUnits
High Temperature81 oF
Low Temperature62 oF
Average Temperature71 oF
High Humidity93 %
Low Humidity49 %
Average Humidity70 %
SourceSpringfield-Branson National Airport (SGF)

Detail Temperature Data For Wednesday 19 April 2017

Date / TimeTemp (F)RH (%)Dew Pt (F)Report Date / TimeSource
2017-04-19 00:52:00 63 87 59.0 2017-12-29 17:00:26.17417 Springfield-Branson National Airport (SGF)
2017-04-19 01:52:00 63 87 59.0 2017-12-29 17:00:26.17417 Springfield-Branson National Airport (SGF)
2017-04-19 02:52:00 62 90 59.0 2017-12-29 17:00:26.17417 Springfield-Branson National Airport (SGF)
2017-04-19 03:52:00 62 90 59.0 2017-12-29 17:00:26.17417 Springfield-Branson National Airport (SGF)
2017-04-19 04:52:00 62 90 59.0 2017-12-29 17:00:26.17417 Springfield-Branson National Airport (SGF)
2017-04-19 05:52:00 62 93 60.0 2017-12-29 17:00:26.17417 Springfield-Branson National Airport (SGF)
2017-04-19 06:52:00 64 93 62.0 2017-12-29 17:00:26.17417 Springfield-Branson National Airport (SGF)
2017-04-19 07:52:00 69 84 64.0 2017-12-29 17:00:26.17417 Springfield-Branson National Airport (SGF)
2017-04-19 08:52:00 72 76 64.0 2017-12-29 17:00:26.17417 Springfield-Branson National Airport (SGF)
2017-04-19 09:52:00 74 67 62.0 2017-12-29 17:00:26.17417 Springfield-Branson National Airport (SGF)
2017-04-19 10:52:00 77 58 61.0 2017-12-29 17:00:26.17417 Springfield-Branson National Airport (SGF)
2017-04-19 11:52:00 79 56 62.0 2017-12-29 17:00:26.17417 Springfield-Branson National Airport (SGF)
2017-04-19 12:52:00 80 51 60.0 2017-12-29 17:00:26.17417 Springfield-Branson National Airport (SGF)
2017-04-19 13:52:00 79 52 60.0 2017-12-29 17:00:26.17417 Springfield-Branson National Airport (SGF)
2017-04-19 14:52:00 81 49 60.0 2017-12-29 17:00:26.17417 Springfield-Branson National Airport (SGF)
2017-04-19 15:52:00 80 49 59.0 2017-12-29 17:00:26.17417 Springfield-Branson National Airport (SGF)
2017-04-19 16:52:00 78 50 58.0 2017-12-29 17:00:26.17417 Springfield-Branson National Airport (SGF)
2017-04-19 17:52:00 77 54 59.0 2017-12-29 17:00:26.17417 Springfield-Branson National Airport (SGF)
2017-04-19 18:52:00 73 59 58.0 2017-12-29 17:00:26.17417 Springfield-Branson National Airport (SGF)
2017-04-19 19:52:00 71 63 58.0 2017-12-29 17:00:26.17417 Springfield-Branson National Airport (SGF)
2017-04-19 20:52:00 70 66 58.0 2017-12-29 17:00:26.17417 Springfield-Branson National Airport (SGF)
2017-04-19 21:52:00 70 66 58.0 2017-12-29 17:00:26.17417 Springfield-Branson National Airport (SGF)
2017-04-19 22:52:00 69 68 58.0 2017-12-29 17:00:26.17417 Springfield-Branson National Airport (SGF)
2017-04-19 23:52:00 68 70 58.0 2017-12-29 17:00:26.17417 Springfield-Branson National Airport (SGF)

A total of 24 rows are displayed.